createdAt,value
2022-10-11T00:02:48.993Z,101244.84
2022-10-11T00:06:49.291Z,101240.95
2022-10-11T00:10:57.551Z,101242.02
2022-10-11T00:14:55.671Z,101234.63
2022-10-11T00:18:53.770Z,101232.70
2022-10-11T00:22:52.156Z,101238.48
2022-10-11T00:26:50.518Z,101234.96
2022-10-11T00:30:49.093Z,101231.80
2022-10-11T00:34:47.678Z,101233.90
2022-10-11T00:38:46.652Z,101241.10
2022-10-11T00:42:45.091Z,101236.17
2022-10-11T00:46:55.717Z,101228.79
2022-10-11T00:51:00.572Z,101231.95
2022-10-11T00:55:18.873Z,101231.59
2022-10-11T00:59:25.170Z,101228.08
2022-10-11T01:02:55.236Z,101231.59
2022-10-11T01:06:54.939Z,101237.56
2022-10-11T01:10:53.855Z,101237.57
2022-10-11T01:19:56.880Z,101252.12
2022-10-11T01:24:39.112Z,101249.81
2022-10-11T01:28:57.176Z,101249.45
2022-10-11T01:33:38.533Z,101248.39
2022-10-11T01:38:08.411Z,101244.70
2022-10-11T01:42:11.943Z,101248.20
2022-10-11T01:46:13.350Z,101246.63
2022-10-11T01:50:35.310Z,101241.71
2022-10-11T01:55:08.648Z,101244.19
2022-10-11T01:58:52.684Z,101245.95
2022-10-11T02:03:32.151Z,101244.90
2022-10-11T02:07:49.200Z,101247.70
2022-10-11T02:11:47.851Z,101255.08
2022-10-11T02:15:48.812Z,101255.61
2022-10-11T02:19:54.589Z,101257.89
2022-10-11T02:23:40.836Z,101260.70
2022-10-11T02:27:45.831Z,101256.64
2022-10-11T02:31:19.963Z,101252.78
2022-10-11T02:35:19.775Z,101256.41
2022-10-11T02:39:29.380Z,101257.14
2022-10-11T02:43:47.876Z,101253.44
2022-10-11T02:47:47.511Z,101258.00
2022-10-11T02:51:45.439Z,101263.59
2022-10-11T02:55:54.814Z,101277.27
2022-10-11T02:59:53.509Z,101278.67
2022-10-11T03:03:51.952Z,101276.04
2022-10-11T03:08:03.871Z,101279.89
2022-10-11T03:12:01.885Z,101279.89
2022-10-11T03:16:03.527Z,101288.83
2022-10-11T03:20:02.257Z,101288.84
2022-10-11T03:24:00.142Z,101287.98
2022-10-11T03:27:58.230Z,101295.02
2022-10-11T03:31:56.092Z,101298.55
2022-10-11T03:35:54.910Z,101305.59
2022-10-11T03:39:55.291Z,101306.46
2022-10-11T03:43:30.932Z,101307.11
2022-10-11T03:47:28.833Z,101318.26
2022-10-11T03:51:27.160Z,101322.86
2022-10-11T03:55:25.172Z,101329.88
2022-10-11T03:59:23.350Z,101343.41
2022-10-11T04:03:21.311Z,101343.60
2022-10-11T04:07:19.770Z,101349.23
2022-10-11T04:11:17.752Z,101356.44
2022-10-11T04:15:16.733Z,101355.58
2022-10-11T04:19:15.730Z,101366.45
2022-10-11T04:23:13.735Z,101376.62
2022-10-11T04:27:12.253Z,101388.20
2022-10-11T04:31:10.350Z,101399.44
2022-10-11T04:35:14.613Z,101408.43
2022-10-11T04:39:13.231Z,101416.16
2022-10-11T04:43:11.376Z,101426.52
2022-10-11T04:47:30.002Z,101429.47
2022-10-11T04:51:29.000Z,101433.66
2022-10-11T04:55:27.238Z,101443.84
2022-10-11T04:59:40.162Z,101451.02
2022-10-11T05:03:51.561Z,101457.67
2022-10-11T05:07:26.204Z,101465.92
2022-10-11T05:11:27.029Z,101467.39
2022-10-11T05:15:25.321Z,101469.41
2022-10-11T05:19:39.500Z,101481.14
2022-10-11T05:23:15.026Z,101487.45
2022-10-11T05:27:13.316Z,101500.42
2022-10-11T05:31:12.430Z,101506.73
2022-10-11T05:35:11.610Z,101512.31
2022-10-11T05:39:10.080Z,101517.06
2022-10-11T05:47:45.370Z,101531.44
2022-10-11T05:51:44.181Z,101533.75
2022-10-11T05:55:43.746Z,101539.42
2022-10-11T05:59:43.820Z,101543.65
2022-10-11T06:03:42.543Z,101552.80
2022-10-11T06:07:50.721Z,101559.66
2022-10-11T06:11:49.604Z,101567.12
2022-10-11T06:15:47.628Z,101572.62
2022-10-11T06:19:46.157Z,101582.55
2022-10-11T06:24:01.633Z,101587.04
2022-10-11T06:28:00.592Z,101588.83
2022-10-11T06:31:59.289Z,101598.49
2022-10-11T06:36:00.545Z,101605.20
2022-10-11T06:39:59.076Z,101614.78
2022-10-11T06:43:58.205Z,101617.03
2022-10-11T06:47:56.357Z,101620.11
2022-10-11T06:51:54.337Z,101623.15
2022-10-11T06:55:52.159Z,101626.35
2022-10-11T06:59:50.239Z,101631.20
2022-10-11T07:03:48.524Z,101636.75
2022-10-11T07:07:47.298Z,101636.11
2022-10-11T07:11:47.977Z,101647.58
2022-10-11T07:15:46.116Z,101650.95
2022-10-11T07:19:57.897Z,101657.61
2022-10-11T07:23:56.130Z,101665.29
2022-10-11T07:27:53.971Z,101668.02
2022-10-11T07:31:52.029Z,101668.06
2022-10-11T07:35:51.256Z,101671.45
2022-10-11T07:40:07.791Z,101679.90
2022-10-11T07:44:09.278Z,101682.29
2022-10-11T07:48:09.863Z,101685.67
2022-10-11T07:52:08.979Z,101693.42
2022-10-11T07:56:09.117Z,101696.48
2022-10-11T08:00:08.631Z,101703.50
2022-10-11T08:04:13.218Z,101707.86
2022-10-11T08:08:28.577Z,101713.52
2022-10-11T08:12:41.159Z,101713.98
2022-10-11T08:16:40.883Z,101716.13
2022-10-11T08:20:40.283Z,101721.19
2022-10-11T08:24:38.863Z,101729.20
2022-10-11T08:33:08.476Z,101728.14
2022-10-11T08:37:20.767Z,101729.50
2022-10-11T08:41:39.698Z,101746.20
2022-10-11T08:45:50.759Z,101766.34
2022-10-11T08:49:51.361Z,101767.95
2022-10-11T08:54:12.372Z,101767.86
2022-10-11T08:58:17.713Z,101779.79
2022-10-11T09:02:55.610Z,101783.73
2022-10-11T09:07:17.888Z,101787.12
2022-10-11T09:11:47.622Z,101785.28
2022-10-11T09:16:23.665Z,101788.38
2022-10-11T09:20:52.234Z,101789.65
2022-10-11T09:25:28.318Z,101794.05
2022-10-11T09:30:12.158Z,101804.65
2022-10-11T09:34:14.138Z,101811.54
2022-10-11T09:38:37.463Z,101818.44
2022-10-11T09:42:36.118Z,101821.98
2022-10-11T09:46:50.071Z,101826.04
2022-10-11T09:50:50.142Z,101830.11
2022-10-11T09:55:03.748Z,101829.60
2022-10-11T09:59:27.573Z,101829.70
2022-10-11T10:03:31.927Z,101839.72
2022-10-11T10:08:05.482Z,101841.52
2022-10-11T10:12:26.309Z,101850.38
2022-10-11T10:16:35.011Z,101856.38
2022-10-11T10:20:54.451Z,101863.80
2022-10-11T10:24:40.830Z,101856.71
2022-10-11T10:28:55.130Z,101853.35
2022-10-11T10:33:11.952Z,101865.00
2022-10-11T10:37:23.985Z,101873.10
2022-10-11T10:41:22.341Z,101876.92
2022-10-11T10:45:25.633Z,101882.07
2022-10-11T10:54:07.104Z,101898.76
2022-10-11T10:58:24.687Z,101890.87
2022-10-11T11:02:44.818Z,101894.97
2022-10-11T11:06:47.053Z,101898.14
2022-10-11T11:11:24.268Z,101898.38
2022-10-11T11:15:38.107Z,101894.06
2022-10-11T11:20:18.512Z,101902.96
2022-10-11T11:24:22.652Z,101904.77
2022-10-11T11:28:57.180Z,101912.33
2022-10-11T11:33:15.068Z,101913.52
2022-10-11T11:37:36.550Z,101915.27
2022-10-11T11:41:41.590Z,101916.01
2022-10-11T11:46:13.975Z,101921.69
2022-10-11T11:50:28.690Z,101920.73
2022-10-11T11:54:47.072Z,101920.21
2022-10-11T11:58:54.411Z,101920.15
2022-10-11T12:03:03.814Z,101929.21
2022-10-11T12:07:16.765Z,101926.51
2022-10-11T12:11:58.212Z,101931.54
2022-10-11T12:16:17.472Z,101923.30
2022-10-11T12:20:41.447Z,101924.58
2022-10-11T12:25:01.055Z,101925.02
2022-10-11T12:29:02.193Z,101923.76
2022-10-11T12:33:13.754Z,101928.61
2022-10-11T12:37:17.917Z,101927.66
2022-10-11T12:41:36.350Z,101927.58
2022-10-11T12:45:35.745Z,101929.91
2022-10-11T12:50:25.531Z,101929.56
2022-10-11T12:54:39.792Z,101932.84
2022-10-11T12:58:44.037Z,101940.66
2022-10-11T13:02:58.249Z,101944.05
2022-10-11T13:07:06.709Z,101947.94
2022-10-11T13:11:09.698Z,101947.39
2022-10-11T13:15:13.916Z,101944.71
2022-10-11T13:19:14.715Z,101945.94
2022-10-11T13:23:38.231Z,101946.85
2022-10-11T13:27:38.418Z,101947.21
2022-10-11T13:31:40.293Z,101953.34
2022-10-11T13:35:39.742Z,101951.55
2022-10-11T13:39:53.463Z,101956.69
2022-10-11T13:43:52.789Z,101952.25
2022-10-11T13:47:54.698Z,101950.31
2022-10-11T13:52:22.182Z,101956.80
2022-10-11T13:56:20.185Z,101959.92
2022-10-11T14:00:38.463Z,101959.13
2022-10-11T14:04:50.783Z,101954.61
2022-10-11T14:08:54.957Z,101964.50
2022-10-11T14:13:24.031Z,101968.58
2022-10-11T14:17:36.503Z,101970.30
2022-10-11T14:21:48.612Z,101971.23
2022-10-11T14:25:47.114Z,101972.27
2022-10-11T14:30:00.322Z,101975.75
2022-10-11T14:34:04.789Z,101976.09
2022-10-11T14:38:03.156Z,101976.80
2022-10-11T14:42:24.032Z,101986.96
2022-10-11T14:46:41.602Z,101986.02
2022-10-11T14:50:50.605Z,101992.19
2022-10-11T14:54:49.519Z,101994.27
2022-10-11T14:58:55.855Z,101999.01
2022-10-11T15:03:08.376Z,102002.16
2022-10-11T15:07:16.310Z,101999.84
2022-10-11T15:10:44.910Z,102006.30
2022-10-11T15:14:43.715Z,102005.77
2022-10-11T15:18:42.082Z,102010.65
2022-10-11T15:22:41.070Z,102014.66
2022-10-11T15:26:53.730Z,102015.30
2022-10-11T15:30:52.809Z,102018.91
2022-10-11T15:34:51.721Z,102026.36
2022-10-11T15:38:58.206Z,102032.77
2022-10-11T15:42:56.984Z,102039.92
2022-10-11T15:46:56.097Z,102041.21
2022-10-11T15:50:55.352Z,102045.31
2022-10-11T15:55:09.478Z,102044.65
2022-10-11T15:58:46.155Z,102049.52
2022-10-11T16:02:44.783Z,102050.31
2022-10-11T16:07:17.163Z,102049.02
2022-10-11T16:11:16.296Z,102048.17
2022-10-11T16:15:17.412Z,102058.83
2022-10-11T16:19:30.247Z,102064.06
2022-10-11T16:23:29.507Z,102060.02
2022-10-11T16:27:29.410Z,102060.88
2022-10-11T16:31:27.829Z,102069.98
2022-10-11T16:35:32.538Z,102070.49
2022-10-11T16:39:34.110Z,102073.61
2022-10-11T16:43:32.242Z,102081.02
2022-10-11T16:47:32.084Z,102085.54
2022-10-11T16:51:33.024Z,102084.94
2022-10-11T16:55:32.467Z,102081.67
2022-10-11T16:59:44.652Z,102083.02
2022-10-11T17:03:43.550Z,102085.92
2022-10-11T17:07:43.842Z,102091.83
2022-10-11T17:11:43.916Z,102094.77
2022-10-11T17:15:41.887Z,102100.00
2022-10-11T17:19:45.292Z,102103.98
2022-10-11T17:23:45.557Z,102107.48
2022-10-11T17:27:44.848Z,102105.20
2022-10-11T17:31:48.827Z,102112.01
2022-10-11T17:35:47.706Z,102115.48
2022-10-11T17:39:45.905Z,102117.17
2022-10-11T17:43:44.312Z,102119.06
2022-10-11T17:47:42.765Z,102114.17
2022-10-11T17:51:56.720Z,102116.84
2022-10-11T17:55:59.006Z,102111.64
2022-10-11T17:59:58.979Z,102114.90
2022-10-11T18:04:16.781Z,102111.15
2022-10-11T18:08:15.385Z,102118.30
2022-10-11T18:12:27.870Z,102109.58
2022-10-11T18:16:41.169Z,102105.70
2022-10-11T18:20:45.589Z,102105.10
2022-10-11T18:24:57.691Z,102106.67
2022-10-11T18:28:56.568Z,102106.98
2022-10-11T18:32:55.367Z,102102.33
2022-10-11T18:36:56.119Z,102101.59
2022-10-11T18:40:56.252Z,102097.74
2022-10-11T18:44:57.183Z,102098.30
2022-10-11T18:48:58.629Z,102095.86
2022-10-11T18:52:56.933Z,102102.52
2022-10-11T18:56:55.591Z,102100.38
2022-10-11T19:00:54.289Z,102103.83
2022-10-11T19:04:53.490Z,102104.27
2022-10-11T19:09:07.229Z,102104.22
2022-10-11T19:13:05.754Z,102106.98
2022-10-11T19:17:04.549Z,102106.44
2022-10-11T19:21:18.790Z,102107.98
2022-10-11T19:25:18.950Z,102111.96
2022-10-11T19:29:32.684Z,102108.36
2022-10-11T19:33:32.550Z,102115.07
2022-10-11T19:37:31.002Z,102114.83
2022-10-11T19:41:29.343Z,102117.42
2022-10-11T19:45:41.361Z,102115.93
2022-10-11T19:49:40.059Z,102119.71
2022-10-11T19:54:11.798Z,102120.02
2022-10-11T19:58:23.991Z,102117.42
2022-10-11T20:02:22.634Z,102119.67
2022-10-11T20:06:38.515Z,102114.92
2022-10-11T20:10:36.945Z,102116.46
2022-10-11T20:14:49.487Z,102117.49
2022-10-11T20:18:50.653Z,102120.34
2022-10-11T20:23:03.942Z,102120.51
2022-10-11T20:27:06.398Z,102122.73
2022-10-11T20:31:13.600Z,102126.67
2022-10-11T20:35:11.957Z,102124.50
2022-10-11T20:47:36.244Z,102118.84
2022-10-11T20:51:49.519Z,102118.31
2022-10-11T20:56:01.336Z,102123.32
2022-10-11T21:04:39.687Z,102120.67
2022-10-11T21:08:40.005Z,102127.92
2022-10-11T21:12:52.068Z,102131.56
2022-10-11T21:16:50.346Z,102134.70
2022-10-11T21:21:24.001Z,102135.25
2022-10-11T21:25:37.084Z,102139.84
2022-10-11T21:29:35.589Z,102141.59
2022-10-11T21:33:34.888Z,102143.73
2022-10-11T21:37:33.812Z,102146.06
2022-10-11T21:45:57.883Z,102146.80
2022-10-11T21:49:56.841Z,102144.92
2022-10-11T21:53:57.774Z,102146.73
2022-10-11T21:57:32.546Z,102143.77
2022-10-11T22:01:44.585Z,102142.63
2022-10-11T22:05:46.739Z,102149.79
2022-10-11T22:09:45.093Z,102149.92
2022-10-11T22:13:43.520Z,102151.98
2022-10-11T22:17:41.942Z,102151.44
2022-10-11T22:21:44.919Z,102158.11
2022-10-11T22:26:03.121Z,102157.02
2022-10-11T22:30:01.325Z,102157.50
2022-10-11T22:34:00.775Z,102152.56
2022-10-11T22:37:59.268Z,102158.48
2022-10-11T22:41:57.892Z,102162.25
2022-10-11T22:45:57.034Z,102162.89
2022-10-11T22:49:55.824Z,102158.05
2022-10-11T22:54:08.097Z,102160.89
2022-10-11T22:58:06.758Z,102162.04
2022-10-11T23:02:18.778Z,102168.27
2022-10-11T23:06:17.961Z,102171.16
2022-10-11T23:10:29.956Z,102169.90
2022-10-11T23:14:28.250Z,102168.71
2022-10-11T23:18:26.239Z,102167.70
2022-10-11T23:22:25.151Z,102168.11
2022-10-11T23:26:23.727Z,102172.75
2022-10-11T23:30:35.771Z,102162.70
2022-10-11T23:34:47.871Z,102158.80
2022-10-11T23:38:54.569Z,102165.77
2022-10-11T23:42:53.052Z,102162.02
2022-10-11T23:46:51.302Z,102166.75
2022-10-11T23:50:50.317Z,102172.92
2022-10-11T23:54:48.540Z,102179.97
2022-10-11T23:58:47.577Z,102181.27
